Time;durP1;ratioP1;P1;durP2;ratioP2;P2;SDS_P1;SDS_P2;PMS_P1;PMS_P2;Temp;Humidity;BMP_temperature;BMP_pressure;BME280_temperature;BME280_humidity;BME280_pressure;Samples;Min_cycle;Max_cycle;Signal;HPM_P1;HPM_P2
2022/12/29 00:01:34;;;;;;;58.10;38.58;;;;;;;-0.32;100.00;96099.13;5059417;28;20159;-67
2022/12/29 00:03:59;;;;;;;52.58;37.22;;;;;;;-0.37;100.00;96093.31;5056791;28;20086;-65
2022/12/29 00:06:25;;;;;;;62.20;40.40;;;;;;;-0.27;100.00;96091.19;5058324;28;20037;-65
2022/12/29 00:08:51;;;;;;;55.60;39.40;;;;;;;-0.33;100.00;96087.09;5045546;28;20033;-65
2022/12/29 00:11:19;;;;;;;68.75;42.95;;;;;;;-0.10;100.00;96078.38;5055577;28;20040;-65
2022/12/29 00:16:29;;;;;;;50.05;33.60;;;;;;;-0.21;100.00;96076.25;5058825;28;20043;-66
2022/12/29 00:18:55;;;;;;;54.15;36.25;;;;;;;-0.24;100.00;96075.53;5057792;28;20636;-69
2022/12/29 00:35:31;;;;;;;28.15;20.20;;;;;;;-0.42;100.00;96049.53;5055579;28;20063;-74
2022/12/29 00:46:13;;;;;;;28.25;19.00;;;;;;;-0.42;100.00;96057.28;5064280;28;20110;-65
2022/12/29 00:51:23;;;;;;;35.53;20.65;;;;;;;-0.52;100.00;96058.59;5062687;28;20035;-65
2022/12/29 00:53:48;;;;;;;31.40;20.75;;;;;;;-0.32;100.00;96057.75;5061046;28;20056;-65
2022/12/29 00:56:14;;;;;;;26.92;19.52;;;;;;;-0.42;100.00;96067.63;5060707;28;20437;-71
2022/12/29 00:58:39;;;;;;;30.95;22.80;;;;;;;-0.53;100.00;96064.69;5062737;28;20111;-67
2022/12/29 01:01:07;;;;;;;33.00;21.48;;;;;;;-0.55;100.00;96061.28;5063691;28;20159;-66
2022/12/29 01:03:34;;;;;;;30.05;20.55;;;;;;;-0.58;100.00;96062.28;5064997;28;20036;-66
2022/12/29 01:06:05;;;;;;;31.17;22.40;;;;;;;-0.59;100.00;96055.44;5056644;28;20091;-66
2022/12/29 01:08:30;;;;;;;27.42;19.75;;;;;;;-0.61;100.00;96058.06;5063809;28;20099;-65
2022/12/29 01:11:04;;;;;;;28.58;19.52;;;;;;;-0.62;100.00;96071.06;5063470;28;20065;-66
2022/12/29 01:13:29;;;;;;;26.30;19.35;;;;;;;-0.68;100.00;96064.41;5056899;28;20052;-66
2022/12/29 01:15:55;;;;;;;25.98;19.92;;;;;;;-0.69;100.00;96062.72;5057195;28;20043;-70
2022/12/29 01:18:21;;;;;;;26.13;20.17;;;;;;;-0.72;100.00;96049.94;5062411;28;20037;-61
2022/12/29 01:20:46;;;;;;;27.00;18.25;;;;;;;-0.74;100.00;96051.75;5065078;28;20399;-71
2022/12/29 01:23:12;;;;;;;19.00;14.32;;;;;;;-0.71;100.00;96051.63;5060518;28;20040;-71
2022/12/29 01:25:37;;;;;;;15.88;12.73;;;;;;;-0.70;100.00;96042.94;5065447;28;20186;-71
2022/12/29 01:28:02;;;;;;;18.45;13.32;;;;;;;-0.61;100.00;96045.13;5067757;28;20457;-71
2022/12/29 01:30:28;;;;;;;17.55;13.95;;;;;;;-0.66;100.00;96039.31;5068390;28;20506;-71
2022/12/29 01:32:53;;;;;;;20.55;14.82;;;;;;;-0.70;100.00;96039.50;5065246;28;20074;-71
2022/12/29 01:35:18;;;;;;;18.90;13.48;;;;;;;-0.68;100.00;96041.13;5069658;28;20043;-66
2022/12/29 01:37:44;;;;;;;23.77;15.23;;;;;;;-0.69;100.00;96038.59;5069071;28;20029;-66
2022/12/29 01:40:10;;;;;;;14.63;11.77;;;;;;;-0.69;100.00;96047.22;5068552;28;20661;-66
2022/12/29 01:42:35;;;;;;;15.50;12.85;;;;;;;-0.69;100.00;96044.63;5070339;28;20037;-66
2022/12/29 01:45:10;;;;;;;20.35;13.77;;;;;;;-0.65;100.00;96050.53;5071026;28;20055;-65
2022/12/29 01:47:38;;;;;;;18.73;13.70;;;;;;;-0.54;100.00;96052.66;5062459;28;20048;-66
2022/12/29 01:50:18;;;;;;;19.27;13.57;;;;;;;-0.47;100.00;96054.06;5070341;28;20421;-66
2022/12/29 01:52:54;;;;;;;14.93;11.35;;;;;;;-0.35;100.00;96057.88;5069297;28;20039;-65
2022/12/29 01:55:19;;;;;;;16.48;11.75;;;;;;;-0.39;100.00;96072.69;5065549;28;20529;-66
2022/12/29 01:57:49;;;;;;;18.05;13.90;;;;;;;-0.40;100.00;96059.81;5068102;28;20028;-69
2022/12/29 02:00:15;;;;;;;16.80;13.55;;;;;;;-0.46;100.00;96079.84;5066838;28;20049;-66
2022/12/29 02:02:51;;;;;;;16.90;13.15;;;;;;;-0.55;100.00;96061.28;5069267;28;20078;-66
2022/12/29 02:05:34;;;;;;;18.08;13.48;;;;;;;-0.64;100.00;96067.72;5066865;28;20079;-66
2022/12/29 02:08:01;;;;;;;14.45;11.38;;;;;;;-0.72;100.00;96073.22;5067358;28;20041;-65
2022/12/29 02:10:29;;;;;;;17.48;12.80;;;;;;;-0.78;100.00;96076.03;5068382;28;20481;-66
2022/12/29 02:12:55;;;;;;;18.02;12.02;;;;;;;-0.80;100.00;96064.91;5070054;28;20033;-66
2022/12/29 02:15:46;;;;;;;16.08;11.02;;;;;;;-0.79;100.00;96074.34;5063951;28;20472;-70
2022/12/29 02:18:26;;;;;;;14.65;12.48;;;;;;;-0.78;100.00;96076.88;5029702;28;20040;-62
2022/12/29 02:21:24;;;;;;;14.65;11.98;;;;;;;-0.75;100.00;96066.41;5066274;28;20040;-62
2022/12/29 02:23:58;;;;;;;12.50;10.52;;;;;;;-0.65;100.00;96061.69;5011128;28;20049;-62
2022/12/29 02:26:54;;;;;;;15.38;13.18;;;;;;;-0.51;100.00;96060.28;5066149;28;20503;-62
2022/12/29 02:29:26;;;;;;;16.00;12.15;;;;;;;-0.43;100.00;96045.25;5066389;28;20406;-62
2022/12/29 02:32:05;;;;;;;14.35;10.73;;;;;;;-0.37;100.00;96059.69;5066688;28;20041;-62
2022/12/29 02:34:33;;;;;;;14.93;11.05;;;;;;;-0.35;100.00;96048.34;5067401;28;20146;-71
2022/12/29 02:37:16;;;;;;;20.25;14.70;;;;;;;-0.22;100.00;96050.41;5067052;28;20067;-62
2022/12/29 02:39:50;;;;;;;16.50;12.50;;;;;;;-0.17;100.00;96032.94;5067348;28;20085;-62
2022/12/29 02:42:21;;;;;;;15.52;11.85;;;;;;;-0.11;100.00;96037.00;5069085;28;20055;-62
2022/12/29 02:45:04;;;;;;;12.80;11.02;;;;;;;-0.07;100.00;96028.19;5066788;28;20082;-62
2022/12/29 02:47:37;;;;;;;12.27;10.38;;;;;;;0.02;100.00;96021.75;5066697;28;20036;-62
2022/12/29 02:50:20;;;;;;;12.85;11.10;;;;;;;0.03;100.00;96024.28;5068737;28;20044;-62
2022/12/29 02:52:59;;;;;;;13.25;11.32;;;;;;;0.11;100.00;96021.34;5067046;28;20626;-62
2022/12/29 02:55:24;;;;;;;14.40;10.32;;;;;;;0.11;100.00;96014.44;5066917;28;20068;-62
2022/12/29 02:58:15;;;;;;;12.82;10.68;;;;;;;0.13;100.00;96022.97;5065666;28;20553;-62
2022/12/29 03:00:55;;;;;;;18.02;11.10;;;;;;;0.21;100.00;96030.38;5066990;28;20040;-62
2022/12/29 03:03:44;;;;;;;12.18;9.18;;;;;;;0.28;100.00;96018.81;5067759;28;20151;-62
2022/12/29 03:06:30;;;;;;;9.65;8.65;;;;;;;0.35;100.00;96021.16;5069240;28;20107;-61
2022/12/29 03:09:27;;;;;;;11.93;10.73;;;;;;;0.42;100.00;96022.53;5064595;28;20433;-62
2022/12/29 03:12:07;;;;;;;13.27;10.13;;;;;;;0.44;100.00;96015.53;5061604;28;20032;-62
2022/12/29 03:17:43;;;;;;;15.25;10.80;;;;;;;0.48;100.00;96011.88;5062774;28;20106;-73
2022/12/29 03:20:12;;;;;;;13.70;10.00;;;;;;;0.54;100.00;96011.56;5065722;28;20036;-73
2022/12/29 03:22:43;;;;;;;13.27;9.40;;;;;;;0.65;100.00;96003.28;5066152;28;20040;-73
2022/12/29 03:25:15;;;;;;;12.32;10.07;;;;;;;0.60;100.00;95999.28;5069495;28;20043;-73
2022/12/29 03:27:47;;;;;;;10.05;9.05;;;;;;;0.57;100.00;95995.91;5067745;28;20067;-73
2022/12/29 03:30:13;;;;;;;9.82;8.15;;;;;;;0.64;100.00;95996.44;5067764;28;20102;-73
2022/12/29 03:32:48;;;;;;;10.20;8.02;;;;;;;0.80;100.00;95995.69;5066516;28;20045;-69
2022/12/29 03:35:18;;;;;;;12.50;7.70;;;;;;;0.80;100.00;95991.38;5068409;28;20036;-67
2022/12/29 03:37:52;;;;;;;11.63;7.70;;;;;;;0.91;100.00;96000.38;5063056;28;20036;-66
2022/12/29 03:40:21;;;;;;;10.65;9.20;;;;;;;1.18;100.00;96002.50;5065805;28;20032;-67
2022/12/29 03:42:48;;;;;;;9.77;8.20;;;;;;;1.03;100.00;95992.00;5066262;28;20036;-67
2022/12/29 03:45:13;;;;;;;9.88;8.57;;;;;;;1.00;100.00;95994.75;5067708;28;20115;-67
2022/12/29 03:47:38;;;;;;;10.35;8.52;;;;;;;1.00;100.00;95994.75;5066799;28;20463;-66
2022/12/29 03:50:04;;;;;;;8.50;7.60;;;;;;;0.97;100.00;95997.47;5068062;28;20032;-66
2022/12/29 03:52:29;;;;;;;9.98;7.70;;;;;;;1.20;100.00;95991.16;5067392;28;20028;-73
2022/12/29 03:54:55;;;;;;;9.10;7.90;;;;;;;1.12;100.00;95991.53;5065998;28;20098;-70
2022/12/29 03:57:20;;;;;;;8.43;7.72;;;;;;;1.07;100.00;95988.34;5066875;28;20124;-71
2022/12/29 03:59:45;;;;;;;9.27;7.15;;;;;;;1.06;100.00;95985.81;5063112;28;20112;-70
2022/12/29 04:02:11;;;;;;;8.60;7.70;;;;;;;1.03;100.00;95976.44;5067104;28;20056;-70
2022/12/29 04:04:36;;;;;;;10.02;7.90;;;;;;;1.01;100.00;95991.25;5066874;28;20055;-70
2022/12/29 04:07:01;;;;;;;9.90;7.15;;;;;;;0.99;100.00;95987.84;5058556;28;20075;-71
2022/12/29 04:09:27;;;;;;;8.50;7.70;;;;;;;1.06;100.00;95983.22;5068074;28;20063;-71
2022/12/29 04:11:52;;;;;;;12.05;9.23;;;;;;;1.12;100.00;95990.72;5066825;28;20119;-74
2022/12/29 04:14:18;;;;;;;8.63;7.78;;;;;;;1.06;100.00;95993.59;5067714;28;20040;-68
2022/12/29 04:16:43;;;;;;;9.80;7.70;;;;;;;1.03;100.00;95988.56;5063859;28;20024;-68
2022/12/29 04:19:08;;;;;;;9.32;7.28;;;;;;;1.04;100.00;95998.88;5066099;28;20434;-68
2022/12/29 04:21:34;;;;;;;8.70;7.80;;;;;;;1.04;100.00;96000.59;5063415;28;20458;-67
2022/12/29 04:23:59;;;;;;;11.38;7.05;;;;;;;1.08;100.00;96002.97;5067929;28;20055;-67
2022/12/29 04:26:25;;;;;;;9.75;7.82;;;;;;;1.12;100.00;96006.28;5065599;28;20036;-68
2022/12/29 04:28:50;;;;;;;10.35;7.53;;;;;;;1.12;100.00;96011.44;5064304;28;20049;-68
2022/12/29 04:31:15;;;;;;;13.50;7.82;;;;;;;1.15;100.00;96011.28;5064608;28;20427;-71
2022/12/29 04:33:41;;;;;;;8.90;7.43;;;;;;;1.13;100.00;96013.94;5064647;28;20555;-70
2022/12/29 04:36:06;;;;;;;12.93;7.45;;;;;;;1.18;100.00;96015.47;5065425;28;20490;-70
2022/12/29 04:38:32;;;;;;;13.00;8.15;;;;;;;1.14;100.00;96009.63;5066052;28;20073;-70
2022/12/29 04:41:00;;;;;;;15.80;9.02;;;;;;;1.15;100.00;96000.91;5066484;28;20044;-70
2022/12/29 04:43:25;;;;;;;14.38;8.85;;;;;;;1.14;100.00;96000.06;5066644;28;20063;-70
2022/12/29 04:45:51;;;;;;;15.27;12.05;;;;;;;1.18;100.00;95989.53;5064106;28;20098;-69
2022/12/29 04:48:16;;;;;;;21.58;16.00;;;;;;;1.17;100.00;95983.53;5065537;28;20509;-69
2022/12/29 04:50:42;;;;;;;17.75;12.38;;;;;;;1.13;100.00;95984.59;5045944;28;20406;-67
2022/12/29 04:53:08;;;;;;;12.27;9.77;;;;;;;1.16;100.00;95981.00;5064542;28;20127;-70
2022/12/29 04:55:33;;;;;;;10.48;8.82;;;;;;;1.18;100.00;95985.19;5063835;28;20116;-69
2022/12/29 04:57:59;;;;;;;14.20;10.98;;;;;;;1.24;100.00;95987.47;5066731;28;20040;-69
2022/12/29 05:00:24;;;;;;;11.43;8.73;;;;;;;1.29;100.00;95997.63;5046423;28;20040;-70
2022/12/29 05:02:51;;;;;;;9.73;7.80;;;;;;;1.32;100.00;95991.44;5063623;28;20071;-69
2022/12/29 05:05:16;;;;;;;11.73;9.20;;;;;;;1.33;100.00;95995.72;5064762;28;20583;-70
2022/12/29 05:07:42;;;;;;;11.95;9.75;;;;;;;1.33;100.00;95998.31;5062883;28;20036;-69
2022/12/29 05:10:08;;;;;;;12.40;9.68;;;;;;;1.36;100.00;95998.16;5059473;28;20147;-74
2022/12/29 05:12:36;;;;;;;16.52;10.95;;;;;;;1.37;100.00;96000.66;5065699;28;20070;-70
2022/12/29 05:15:02;;;;;;;87.20;47.33;;;;;;;1.39;100.00;95988.44;5066504;28;20506;-70
2022/12/29 05:17:28;;;;;;;91.22;51.92;;;;;;;1.41;100.00;95990.97;5062083;28;20047;-71
2022/12/29 05:19:53;;;;;;;56.30;34.78;;;;;;;1.43;100.00;95992.56;5065328;28;20033;-71
2022/12/29 05:22:19;;;;;;;27.42;18.02;;;;;;;1.48;100.00;95991.50;5065926;28;20033;-70
2022/12/29 05:24:44;;;;;;;12.95;10.43;;;;;;;1.50;100.00;95994.88;5069307;28;20032;-70
2022/12/29 05:27:09;;;;;;;14.00;9.40;;;;;;;1.51;100.00;95996.53;5066743;28;20032;-75
2022/12/29 05:29:35;;;;;;;10.70;9.13;;;;;;;1.51;100.00;95996.53;5066146;28;20029;-75
2022/12/29 05:32:00;;;;;;;11.88;9.25;;;;;;;1.50;100.00;95987.09;5066315;28;20025;-66
2022/12/29 05:34:25;;;;;;;11.82;7.72;;;;;;;1.50;100.00;95979.28;5065379;28;20079;-67
2022/12/29 05:36:51;;;;;;;9.77;6.63;;;;;;;1.53;100.00;95987.75;5067820;28;20147;-67
2022/12/29 05:39:16;;;;;;;13.10;8.70;;;;;;;1.56;100.00;95990.22;5069359;28;20043;-67
2022/12/29 05:41:42;;;;;;;21.88;17.33;;;;;;;1.60;100.00;95984.84;5070285;28;20127;-67
2022/12/29 05:44:07;;;;;;;16.38;14.38;;;;;;;1.62;100.00;95986.44;5064013;28;20036;-67
2022/12/29 05:46:32;;;;;;;13.05;11.13;;;;;;;1.61;100.00;95987.34;5062601;28;20518;-62
2022/12/29 05:48:58;;;;;;;18.15;10.90;;;;;;;1.61;100.00;95992.53;5065803;28;20083;-62
2022/12/29 05:51:23;;;;;;;18.73;15.75;;;;;;;1.60;100.00;95996.06;5070596;28;20043;-61
2022/12/29 05:53:49;;;;;;;18.13;13.30;;;;;;;1.61;100.00;96002.91;5066641;28;20041;-61
2022/12/29 05:56:14;;;;;;;37.10;33.08;;;;;;;1.68;100.00;95993.91;5070257;28;20039;-62
2022/12/29 05:58:39;;;;;;;22.60;20.17;;;;;;;1.70;100.00;95994.69;5068713;28;20033;-62
2022/12/29 06:01:05;;;;;;;18.23;15.30;;;;;;;1.71;100.00;96003.28;5048375;28;20041;-62
2022/12/29 06:03:30;;;;;;;19.75;14.30;;;;;;;1.71;100.00;96008.47;5066780;28;20075;-62
2022/12/29 06:05:55;;;;;;;14.80;12.43;;;;;;;1.75;100.00;96011.75;5064789;28;20036;-62
2022/12/29 06:08:21;;;;;;;10.38;9.38;;;;;;;1.78;100.00;96009.00;5063160;28;20410;-70
2022/12/29 06:10:46;;;;;;;7.78;7.05;;;;;;;1.82;100.00;96000.13;5064615;28;20119;-61
2022/12/29 06:13:12;;;;;;;8.85;7.97;;;;;;;1.88;100.00;96010.22;5071096;28;20032;-62
2022/12/29 06:15:38;;;;;;;10.15;9.15;;;;;;;1.88;100.00;96009.38;5065661;28;20044;-62
2022/12/29 06:18:03;;;;;;;10.60;9.23;;;;;;;1.84;100.00;96009.53;5063709;28;20082;-62
2022/12/29 06:20:29;;;;;;;10.00;9.00;;;;;;;1.85;100.00;96015.53;5067751;28;20024;-62
2022/12/29 06:22:54;;;;;;;11.32;9.68;;;;;;;1.87;100.00;96018.91;5064968;28;20502;-62
2022/12/29 06:25:19;;;;;;;32.63;27.65;;;;;;;1.89;100.00;96018.81;5071464;28;20036;-70
2022/12/29 06:27:45;;;;;;;25.73;21.17;;;;;;;1.89;100.00;96024.03;5067505;28;20048;-68
2022/12/29 06:30:11;;;;;;;14.60;13.10;;;;;;;1.88;100.00;96024.94;5067137;28;20597;-62
2022/12/29 06:32:36;;;;;;;12.73;10.25;;;;;;;1.88;100.00;96024.94;5068250;28;20033;-62
2022/12/29 06:35:02;;;;;;;18.33;16.42;;;;;;;1.96;100.00;96028.81;5066354;28;20111;-62
2022/12/29 06:37:28;;;;;;;16.20;14.45;;;;;;;1.98;100.00;96023.53;5068011;28;20063;-62
2022/12/29 06:39:53;;;;;;;18.25;13.82;;;;;;;1.98;100.00;96028.72;5067820;28;20148;-62
2022/12/29 06:42:19;;;;;;;13.40;11.27;;;;;;;1.98;100.00;96024.38;5068359;28;20033;-62
2022/12/29 06:44:44;;;;;;;12.88;10.57;;;;;;;1.96;100.00;96034.00;5067150;28;20119;-67
2022/12/29 06:47:10;;;;;;;12.82;10.30;;;;;;;1.96;100.00;96030.56;5062579;28;20044;-62
2022/12/29 06:49:35;;;;;;;13.68;9.80;;;;;;;1.97;100.00;96027.91;5063345;28;20457;-73
2022/12/29 06:52:03;;;;;;;11.48;9.63;;;;;;;2.00;100.00;96035.53;5067313;28;20068;-73
2022/12/29 06:54:29;;;;;;;12.90;9.95;;;;;;;1.96;100.00;96031.41;5062994;28;20095;-73
2022/12/29 06:56:54;;;;;;;11.55;10.23;;;;;;;1.97;100.00;96046.06;5068367;28;20077;-73
2022/12/29 06:59:20;;;;;;;14.70;9.40;;;;;;;1.97;100.00;96043.47;5068380;28;20036;-73
2022/12/29 07:01:45;;;;;;;10.95;9.85;;;;;;;2.02;100.00;96053.63;5066678;28;20119;-73
2022/12/29 07:04:10;;;;;;;13.10;11.07;;;;;;;2.10;100.00;96053.22;5069489;28;20036;-70
2022/12/29 07:06:36;;;;;;;13.07;11.65;;;;;;;2.15;100.00;96049.44;5066456;28;20498;-68
2022/12/29 07:09:02;;;;;;;16.63;13.27;;;;;;;2.20;100.00;96051.81;5069637;28;20053;-62
2022/12/29 07:11:27;;;;;;;14.43;12.85;;;;;;;2.20;100.00;96066.56;5067633;28;20040;-62
2022/12/29 07:13:52;;;;;;;21.10;15.75;;;;;;;2.35;100.00;96050.16;5064549;28;20147;-62
2022/12/29 07:16:18;;;;;;;19.15;15.32;;;;;;;2.49;100.00;96064.19;5066599;28;20071;-62
2022/12/29 07:18:44;;;;;;;16.90;14.43;;;;;;;2.36;100.00;96072.63;5064487;28;20437;-62
2022/12/29 07:21:10;;;;;;;17.48;12.27;;;;;;;2.35;100.00;96050.16;5065818;28;20578;-62
2022/12/29 07:23:35;;;;;;;15.55;11.60;;;;;;;2.35;100.00;96059.72;5067274;28;20032;-69
2022/12/29 07:26:06;;;;;;;16.77;11.05;;;;;;;2.37;100.00;96057.88;5071818;28;20036;-66
2022/12/29 07:28:32;;;;;;;11.35;10.23;;;;;;;2.36;100.00;96054.44;5064695;28;20525;-62
2022/12/29 07:30:58;;;;;;;11.52;10.30;;;;;;;2.35;100.00;96052.75;5067381;28;20041;-62
2022/12/29 07:33:23;;;;;;;16.05;11.10;;;;;;;2.36;100.00;96061.41;5064989;28;20029;-62
2022/12/29 07:35:49;;;;;;;13.48;10.50;;;;;;;2.38;100.00;96055.19;5069379;28;20123;-62
2022/12/29 07:38:14;;;;;;;20.73;15.55;;;;;;;2.41;100.00;96059.38;5064635;28;20068;-62
2022/12/29 07:40:40;;;;;;;17.77;13.57;;;;;;;2.47;100.00;96056.44;5066150;28;20086;-62
2022/12/29 07:43:05;;;;;;;21.73;17.02;;;;;;;2.46;100.00;96064.34;5066649;28;20119;-70
2022/12/29 07:45:30;;;;;;;20.92;15.70;;;;;;;2.42;100.00;96053.25;5066688;28;20418;-61
2022/12/29 07:47:56;;;;;;;16.98;15.02;;;;;;;2.43;100.00;96055.78;5061851;28;20139;-69
2022/12/29 07:50:21;;;;;;;14.98;13.45;;;;;;;2.46;100.00;96052.16;5064963;28;20040;-69
2022/12/29 07:52:47;;;;;;;15.60;12.60;;;;;;;2.50;100.00;96051.06;5061319;28;20029;-69
2022/12/29 07:55:13;;;;;;;14.48;12.98;;;;;;;2.54;100.00;96047.41;5065489;28;20115;-69
2022/12/29 07:57:39;;;;;;;14.05;12.57;;;;;;;2.57;100.00;96049.00;5066054;28;20510;-70
2022/12/29 08:00:05;;;;;;;15.20;11.93;;;;;;;2.57;100.00;96044.66;5068298;28;20086;-67
2022/12/29 08:02:30;;;;;;;23.17;16.13;;;;;;;2.62;100.00;96041.78;5070588;28;20119;-61
2022/12/29 08:04:56;;;;;;;26.40;18.25;;;;;;;2.65;100.00;96049.44;5066463;28;20094;-61
2022/12/29 08:07:21;;;;;;;24.77;17.42;;;;;;;2.71;100.00;96045.63;5044678;28;20044;-62
2022/12/29 08:09:46;;;;;;;30.13;22.30;;;;;;;2.75;100.00;96052.31;5067195;28;20037;-62
2022/12/29 08:12:12;;;;;;;24.75;19.95;;;;;;;2.80;100.00;96042.53;5061620;28;20546;-63
2022/12/29 08:14:38;;;;;;;25.27;17.92;;;;;;;2.92;100.00;96040.16;5067309;28;20040;-63
2022/12/29 08:17:03;;;;;;;19.58;16.65;;;;;;;3.01;100.00;96034.44;5061383;28;20040;-63
2022/12/29 08:19:29;;;;;;;20.38;15.50;;;;;;;3.17;100.00;96038.75;5064467;28;20033;-64
2022/12/29 08:21:54;;;;;;;23.25;14.05;;;;;;;3.23;100.00;96030.63;5065638;28;20032;-61
2022/12/29 08:24:20;;;;;;;30.02;20.83;;;;;;;3.43;100.00;96045.06;5066326;28;20033;-64
2022/12/29 08:26:45;;;;;;;26.92;22.60;;;;;;;3.49;100.00;96043.88;5065373;28;20036;-67
2022/12/29 08:29:10;;;;;;;26.80;21.23;;;;;;;3.52;100.00;96046.31;5065959;28;20031;-68
2022/12/29 08:31:36;;;;;;;22.85;20.48;;;;;;;3.66;100.00;96040.28;5065034;28;20033;-67
2022/12/29 08:34:03;;;;;;;33.75;25.05;;;;;;;3.83;100.00;96045.34;5066644;28;20090;-66
2022/12/29 08:36:29;;;;;;;28.20;21.65;;;;;;;3.77;100.00;96045.72;5065061;28;20024;-69
2022/12/29 08:38:54;;;;;;;28.17;22.08;;;;;;;3.73;100.00;96046.78;5064972;28;20033;-66
2022/12/29 08:41:20;;;;;;;30.80;21.50;;;;;;;3.67;100.00;96041.97;5064208;28;20035;-76
2022/12/29 08:43:47;;;;;;;17.02;13.63;;;;;;;3.62;100.00;96042.22;5062928;28;20128;-67
2022/12/29 08:46:12;;;;;;;13.88;12.00;;;;;;;3.67;100.00;96048.03;5060173;28;20049;-65
2022/12/29 08:48:37;;;;;;;15.80;11.43;;;;;;;3.77;100.00;96044.84;5068539;28;20036;-68
2022/12/29 08:51:03;;;;;;;12.25;10.93;;;;;;;3.82;100.00;96054.06;5063270;28;20621;-68
2022/12/29 08:53:28;;;;;;;11.40;10.18;;;;;;;3.95;100.00;96043.75;5066644;28;20514;-67
2022/12/29 08:55:59;;;;;;;12.05;9.52;;;;;;;3.96;100.00;96048.03;5066801;28;20505;-68
2022/12/29 08:58:26;;;;;;;11.82;10.55;;;;;;;3.99;100.00;96054.84;5067782;28;20471;-68
2022/12/29 09:00:55;;;;;;;13.20;10.65;;;;;;;4.10;100.00;96049.00;5066618;28;20040;-65
2022/12/29 09:03:21;;;;;;;13.25;10.77;;;;;;;4.12;100.00;96045.34;5072228;28;20032;-65
2022/12/29 09:05:51;;;;;;;12.38;10.35;;;;;;;4.20;100.00;96042.25;5066719;28;20061;-64
2022/12/29 09:08:17;;;;;;;13.43;11.02;;;;;;;4.24;100.00;96041.13;5063072;28;20045;-66
2022/12/29 09:10:43;;;;;;;15.25;11.55;;;;;;;4.37;100.00;96032.56;5072067;28;20060;-65
2022/12/29 09:13:10;;;;;;;11.32;8.75;;;;;;;4.48;100.00;96031.91;5068085;28;20506;-67
2022/12/29 09:15:35;;;;;;;14.07;9.70;;;;;;;4.49;100.00;96034.41;5066655;28;20058;-67
2022/12/29 09:18:00;;;;;;;8.73;7.82;;;;;;;4.57;100.00;96032.16;5070633;28;20502;-64
2022/12/29 09:20:26;;;;;;;11.63;9.05;;;;;;;4.54;100.00;96036.72;5064966;28;20040;-61
2022/12/29 09:22:51;;;;;;;10.45;8.65;;;;;;;4.56;100.00;96033.09;5074314;28;20517;-67
2022/12/29 09:25:17;;;;;;;12.18;8.48;;;;;;;4.58;100.00;96036.44;5067290;28;20041;-68
2022/12/29 09:27:42;;;;;;;16.20;9.50;;;;;;;4.48;100.00;96032.72;5066800;28;20114;-69
2022/12/29 09:30:11;;;;;;;12.45;9.30;;;;;;;4.44;100.00;96029.50;5064606;28;20437;-71
2022/12/29 09:32:36;;;;;;;12.15;9.65;;;;;;;4.59;100.00;96022.47;5070833;28;20032;-70
2022/12/29 09:35:02;;;;;;;11.68;8.82;;;;;;;4.63;100.00;96030.09;5069136;28;20102;-72
2022/12/29 09:37:27;;;;;;;12.48;10.07;;;;;;;4.75;100.00;96029.31;5065174;28;20108;-71
2022/12/29 09:39:53;;;;;;;11.32;10.13;;;;;;;4.70;100.00;96027.00;5068704;28;20051;-68
2022/12/29 09:42:35;;;;;;;18.65;12.95;;;;;;;4.72;100.00;96035.56;5069923;28;20123;-63
2022/12/29 09:45:13;;;;;;;16.48;12.15;;;;;;;4.68;100.00;96046.28;5068848;28;20032;-64
2022/12/29 09:47:41;;;;;;;18.40;11.90;;;;;;;4.75;100.00;96033.72;5064913;28;20111;-63
2022/12/29 09:50:28;;;;;;;26.67;18.48;;;;;;;4.80;100.00;96047.28;5065959;28;20036;-64
2022/12/29 09:53:02;;;;;;;15.27;12.13;;;;;;;4.70;100.00;96052.25;5064590;28;20028;-66
2022/12/29 09:55:39;;;;;;;15.93;10.88;;;;;;;4.63;100.00;96050.97;5063038;28;20037;-66
2022/12/29 09:58:13;;;;;;;17.35;11.75;;;;;;;4.45;100.00;96040.75;5067818;28;20034;-61
2022/12/29 10:00:56;;;;;;;17.48;12.95;;;;;;;4.36;100.00;96047.38;5063297;28;20047;-68
2022/12/29 10:03:26;;;;;;;16.73;11.30;;;;;;;4.33;100.00;96052.78;5064100;28;20040;-71
2022/12/29 10:06:00;;;;;;;18.73;14.15;;;;;;;4.24;100.00;96048.97;5067465;28;20046;-72
2022/12/29 10:08:44;;;;;;;20.13;14.68;;;;;;;4.36;100.00;96041.34;5068399;28;20090;-72
2022/12/29 10:11:47;;;;;;;19.15;13.82;;;;;;;4.41;100.00;96032.28;5068527;28;20043;-70
2022/12/29 10:14:15;;;;;;;17.08;11.82;;;;;;;4.46;100.00;96026.78;5068511;28;20070;-71
2022/12/29 10:16:55;;;;;;;23.23;13.93;;;;;;;4.53;100.00;96025.47;5066829;28;20094;-69
2022/12/29 10:19:45;;;;;;;13.73;11.07;;;;;;;4.68;100.00;96025.44;5066072;28;20040;-70
2022/12/29 10:22:35;;;;;;;16.35;10.80;;;;;;;4.71;100.00;96013.03;5065400;28;21297;-61
2022/12/29 10:25:10;;;;;;;13.57;10.25;;;;;;;4.94;100.00;96002.91;5066378;28;20032;-61
2022/12/29 10:27:37;;;;;;;16.23;13.57;;;;;;;4.99;100.00;95994.78;5067076;28;20583;-61
2022/12/29 10:30:03;;;;;;;19.23;15.18;;;;;;;5.05;100.00;95993.50;5066441;28;20029;-61
2022/12/29 10:32:40;;;;;;;18.70;13.70;;;;;;;5.45;98.81;95985.66;5068675;28;20525;-61
2022/12/29 10:35:14;;;;;;;13.00;8.25;;;;;;;6.23;91.86;95978.63;5070033;28;20040;-61
2022/12/29 10:37:48;;;;;;;17.83;12.13;;;;;;;6.91;89.26;95974.75;5068186;28;20048;-71
2022/12/29 10:40:27;;;;;;;11.50;8.93;;;;;;;7.55;88.47;95969.13;5069276;28;20036;-67
2022/12/29 10:42:55;;;;;;;9.13;6.70;;;;;;;8.11;83.70;95957.00;5067537;28;20039;-67
2022/12/29 10:45:23;;;;;;;16.75;12.00;;;;;;;8.51;83.23;95946.97;5067973;28;20787;-68
2022/12/29 10:48:19;;;;;;;16.60;10.13;;;;;;;8.70;79.96;95943.69;5068523;28;20074;-68
2022/12/29 10:50:45;;;;;;;11.52;7.45;;;;;;;8.88;79.77;95944.00;5067669;28;20029;-68
2022/12/29 10:53:20;;;;;;;9.95;6.55;;;;;;;9.07;76.95;95934.63;5062672;28;20173;-68
2022/12/29 10:55:46;;;;;;;6.25;5.60;;;;;;;9.22;72.01;95935.13;5068909;28;20569;-61
2022/12/29 10:58:14;;;;;;;10.32;7.03;;;;;;;9.31;69.70;95935.19;5067793;28;20044;-67
2022/12/29 11:00:40;;;;;;;13.15;9.48;;;;;;;9.39;71.14;95931.09;5065793;28;20044;-60
2022/12/29 11:03:25;;;;;;;9.73;7.65;;;;;;;9.16;70.19;95921.53;5066884;28;20036;-61
2022/12/29 11:05:57;;;;;;;8.45;7.40;;;;;;;9.09;71.82;95915.13;5065111;28;20033;-61
2022/12/29 11:08:27;;;;;;;11.63;8.70;;;;;;;9.43;72.44;95920.19;5058170;28;20500;-60
2022/12/29 11:11:08;;;;;;;9.60;6.82;;;;;;;9.38;70.52;95924.16;5065591;28;20044;-61
2022/12/29 11:13:50;;;;;;;7.60;6.18;;;;;;;8.74;71.66;95919.69;5060513;28;20048;-61
2022/12/29 11:16:30;;;;;;;12.52;6.28;;;;;;;8.59;73.36;95908.66;5045972;28;20442;-72
2022/12/29 11:18:56;;;;;;;7.38;6.03;;;;;;;8.66;73.79;95914.25;5045645;28;20123;-63
2022/12/29 11:21:39;;;;;;;8.40;5.05;;;;;;;8.99;73.71;95909.78;5066733;28;20155;-61
2022/12/29 11:24:18;;;;;;;9.90;5.00;;;;;;;8.97;72.64;95901.22;5066690;28;20099;-62
2022/12/29 11:26:44;;;;;;;8.45;5.55;;;;;;;9.13;70.04;95892.88;5063298;28;20079;-62
2022/12/29 11:29:22;;;;;;;9.32;4.95;;;;;;;9.80;71.44;95886.47;5058759;28;20421;-62
2022/12/29 11:31:54;;;;;;;5.22;4.72;;;;;;;10.35;70.10;95877.38;5063383;28;20037;-61
2022/12/29 11:34:23;;;;;;;4.90;4.22;;;;;;;10.98;65.98;95882.25;5067177;28;20152;-67
2022/12/29 11:36:51;;;;;;;5.47;3.33;;;;;;;11.33;60.88;95872.09;5067673;28;20032;-60
2022/12/29 11:39:52;;;;;;;18.00;10.32;;;;;;;11.60;59.00;95867.84;5061792;28;20111;-66
2022/12/29 11:42:22;;;;;;;9.90;4.95;;;;;;;11.56;56.27;95862.06;5033777;28;20045;-67
2022/12/29 11:44:50;;;;;;;17.13;11.77;;;;;;;11.65;57.96;95857.72;5064058;28;20052;-65
2022/12/29 11:47:32;;;;;;;9.52;7.82;;;;;;;11.49;57.36;95857.50;5055928;28;20028;-65
2022/12/29 11:50:04;;;;;;;15.63;10.02;;;;;;;11.44;59.87;95847.38;5057782;28;21499;-65
2022/12/29 11:52:34;;;;;;;8.18;5.47;;;;;;;11.56;56.89;95837.47;5063389;28;20037;-67
2022/12/29 11:55:03;;;;;;;5.07;4.55;;;;;;;11.60;58.39;95823.03;5064836;28;20513;-67
2022/12/29 11:57:29;;;;;;;4.65;4.20;;;;;;;11.49;57.73;95825.84;5062750;28;20048;-68
2022/12/29 11:59:57;;;;;;;8.63;5.45;;;;;;;11.51;57.92;95826.53;5065754;28;20024;-67